Time;durP1;ratioP1;P1;durP2;ratioP2;P2;SDS_P1;SDS_P2;PMS_P1;PMS_P2;Temp;Humidity;BMP_temperature;BMP_pressure;BME280_temperature;BME280_humidity;BME280_pressure;Samples;Min_cycle;Max_cycle;Signal;HPM_P1;HPM_P2
2022/02/04 00:04:50;;;;;;;0.40;0.20;;;20.10;52.00;;;;;;5063230;28;20127;-53
2022/02/04 00:07:37;;;;;;;3.20;0.13;;;20.10;52.00;;;;;;5067960;28;20125;-52
2022/02/04 00:21:22;;;;;;;0.13;0.13;;;20.00;51.70;;;;;;5063008;28;20044;-51
2022/02/04 00:23:50;;;;;;;0.20;0.20;;;20.00;51.60;;;;;;5063438;28;20048;-53
2022/02/04 00:26:20;;;;;;;0.13;0.13;;;20.00;51.50;;;;;;5069639;28;20155;-52
2022/02/04 00:28:56;;;;;;;0.10;0.10;;;20.00;51.50;;;;;;5072141;28;20052;-52
2022/02/04 00:31:30;;;;;;;0.22;0.22;;;20.10;51.50;;;;;;5066090;28;20083;-51
2022/02/04 00:34:03;;;;;;;0.28;0.28;;;20.00;51.40;;;;;;5063463;28;20059;-52
2022/02/04 00:36:37;;;;;;;0.28;0.20;;;20.00;51.40;;;;;;5064235;28;20044;-50
2022/02/04 00:39:08;;;;;;;0.10;0.10;;;20.10;51.40;;;;;;5083103;28;20067;-52
2022/02/04 00:41:38;;;;;;;0.32;0.32;;;20.10;51.40;;;;;;5089529;28;20508;-52
2022/02/04 00:44:10;;;;;;;0.10;0.10;;;20.00;51.40;;;;;;5093526;28;20040;-50
2022/02/04 00:46:51;;;;;;;0.52;0.30;;;20.10;51.40;;;;;;5091003;28;20040;-52
2022/02/04 00:49:23;;;;;;;0.10;0.10;;;20.10;51.40;;;;;;5087925;28;20044;-50
2022/02/04 00:51:59;;;;;;;0.20;0.10;;;20.00;51.30;;;;;;5091533;28;20688;-53
2022/02/04 00:54:39;;;;;;;0.35;0.20;;;20.00;51.90;;;;;;5085823;28;20131;-51
2022/02/04 00:57:14;;;;;;;1.48;0.10;;;20.00;51.30;;;;;;5085106;28;20044;-52
2022/02/04 01:13:36;;;;;;;0.10;0.10;;;20.00;51.40;;;;;;5090107;28;20138;-53
2022/02/04 01:27:06;;;;;;;0.50;0.32;;;19.90;51.80;;;;;;5088998;28;20560;-52
2022/02/04 01:29:40;;;;;;;0.30;0.10;;;20.00;51.80;;;;;;5092326;28;20043;-49
2022/02/04 01:32:10;;;;;;;1.80;0.20;;;20.00;51.80;;;;;;5092457;28;20044;-50
2022/02/04 01:34:37;;;;;;;0.17;0.10;;;20.00;51.80;;;;;;5088942;28;20059;-51
2022/02/04 01:37:04;;;;;;;0.10;0.10;;;19.90;51.70;;;;;;5092292;28;20059;-51
2022/02/04 01:39:31;;;;;;;0.20;0.10;;;20.00;51.70;;;;;;5090289;28;20076;-50
2022/02/04 01:42:00;;;;;;;0.20;0.10;;;20.00;51.70;;;;;;5086143;28;20556;-54
2022/02/04 01:44:28;;;;;;;0.68;0.28;;;20.00;51.60;;;;;;5088011;28;20036;-50
2022/02/04 01:46:56;;;;;;;0.28;0.10;;;20.00;51.50;;;;;;5094207;28;20076;-48
2022/02/04 01:49:27;;;;;;;0.10;0.10;;;20.00;51.40;;;;;;5087797;28;20044;-50
2022/02/04 01:51:55;;;;;;;0.32;0.32;;;20.00;51.40;;;;;;5090285;28;20043;-51
2022/02/04 01:54:23;;;;;;;0.35;0.10;;;20.00;51.40;;;;;;5085920;28;20512;-50
2022/02/04 01:56:50;;;;;;;1.20;0.15;;;20.00;51.30;;;;;;5086151;28;20059;-52
2022/02/04 01:59:17;;;;;;;0.60;0.20;;;20.00;51.30;;;;;;5088943;28;20047;-50
2022/02/04 02:01:45;;;;;;;1.45;0.10;;;20.00;51.20;;;;;;5091486;28;20036;-49
2022/02/04 02:04:14;;;;;;;0.50;0.20;;;20.00;51.20;;;;;;5090817;28;20485;-52
2022/02/04 02:06:47;;;;;;;0.28;0.28;;;20.00;51.20;;;;;;5087993;28;20043;-52
2022/02/04 02:09:14;;;;;;;0.43;0.20;;;20.00;51.10;;;;;;5084564;28;20042;-52
2022/02/04 02:11:42;;;;;;;0.10;0.10;;;20.00;51.10;;;;;;5090339;28;20040;-49
2022/02/04 02:14:12;;;;;;;0.88;0.20;;;20.00;51.10;;;;;;5091516;28;20534;-51
2022/02/04 02:36:02;;;;;;;0.20;0.10;;;19.90;51.10;;;;;;5084922;28;20554;-50
2022/02/04 02:44:17;;;;;;;0.25;0.25;;;19.90;51.10;;;;;;5091247;28;20726;-53
2022/02/04 02:47:06;;;;;;;0.10;0.10;;;19.90;51.10;;;;;;5085542;28;20435;-51
2022/02/04 02:52:23;;;;;;;0.32;0.10;;;19.90;51.00;;;;;;5087939;28;20064;-50
2022/02/04 02:57:48;;;;;;;0.10;0.10;;;19.90;51.00;;;;;;5085327;28;20562;-53
2022/02/04 03:00:27;;;;;;;0.20;0.20;;;19.90;51.00;;;;;;5079565;28;20036;-54
2022/02/04 03:02:59;;;;;;;0.20;0.17;;;19.90;51.00;;;;;;5085839;28;20147;-51
2022/02/04 03:05:26;;;;;;;0.30;0.10;;;19.90;51.00;;;;;;5087496;28;20473;-48
2022/02/04 03:07:53;;;;;;;0.20;0.10;;;19.90;50.90;;;;;;5089011;28;20048;-47
2022/02/04 03:10:21;;;;;;;0.30;0.30;;;19.90;50.90;;;;;;5092875;28;20036;-53
2022/02/04 03:12:49;;;;;;;0.28;0.28;;;19.90;50.80;;;;;;5089180;28;20146;-52
2022/02/04 03:15:16;;;;;;;0.40;0.15;;;19.90;50.80;;;;;;5084730;28;20068;-50
2022/02/04 03:17:45;;;;;;;0.43;0.10;;;19.90;50.80;;;;;;5088127;28;20048;-53
2022/02/04 03:20:14;;;;;;;0.68;0.10;;;19.90;50.80;;;;;;5092329;28;20048;-47
2022/02/04 03:22:41;;;;;;;4.18;0.30;;;19.90;50.90;;;;;;5089371;28;20063;-50
2022/02/04 03:25:11;;;;;;;2.28;0.10;;;19.90;50.90;;;;;;5088038;28;20044;-50
2022/02/04 03:27:46;;;;;;;0.10;0.10;;;19.90;51.00;;;;;;5087059;28;20117;-52
2022/02/04 03:30:17;;;;;;;0.20;0.20;;;19.90;50.90;;;;;;5090184;28;20325;-50
2022/02/04 03:32:50;;;;;;;1.27;0.10;;;19.90;50.80;;;;;;5082769;28;20131;-48
2022/02/04 03:35:21;;;;;;;0.10;0.10;;;19.90;50.90;;;;;;5089803;28;20044;-47
2022/02/04 03:37:49;;;;;;;0.13;0.10;;;19.90;50.90;;;;;;5085091;28;20047;-46
2022/02/04 03:40:17;;;;;;;1.75;0.10;;;19.90;50.90;;;;;;5086338;28;20063;-47
2022/02/04 03:42:46;;;;;;;0.20;0.10;;;19.90;50.90;;;;;;5087843;28;20108;-46
2022/02/04 03:45:13;;;;;;;0.10;0.10;;;19.90;50.80;;;;;;5088870;28;20530;-51
2022/02/04 03:47:40;;;;;;;0.30;0.10;;;19.90;50.80;;;;;;5084397;28;20489;-49
2022/02/04 03:50:08;;;;;;;0.13;0.10;;;19.90;50.80;;;;;;5088596;28;20505;-49
2022/02/04 03:52:35;;;;;;;0.10;0.10;;;19.90;50.80;;;;;;5089144;28;20520;-49
2022/02/04 03:55:02;;;;;;;0.10;0.10;;;19.90;50.70;;;;;;5087865;28;20044;-49
2022/02/04 03:57:29;;;;;;;0.20;0.10;;;19.90;50.70;;;;;;5085440;28;20037;-49
2022/02/04 03:59:58;;;;;;;0.28;0.17;;;19.90;50.80;;;;;;5086815;28;20044;-50
2022/02/04 04:02:26;;;;;;;0.10;0.10;;;19.90;50.70;;;;;;5091404;28;20035;-50
2022/02/04 04:04:53;;;;;;;0.10;0.10;;;19.90;50.80;;;;;;5090179;28;20047;-51
2022/02/04 04:07:20;;;;;;;0.10;0.10;;;19.90;50.80;;;;;;5087258;28;20831;-47
2022/02/04 04:09:51;;;;;;;0.17;0.17;;;19.90;50.80;;;;;;5087792;28;20039;-48
2022/02/04 04:12:19;;;;;;;0.20;0.10;;;19.80;50.70;;;;;;5089838;28;20062;-49
2022/02/04 04:14:51;;;;;;;0.10;0.10;;;19.90;50.80;;;;;;5083285;28;20766;-49
2022/02/04 04:17:19;;;;;;;0.13;0.13;;;19.90;50.80;;;;;;5088127;28;20044;-52
2022/02/04 04:19:47;;;;;;;4.78;0.10;;;19.80;50.70;;;;;;5091733;28;20538;-52
2022/02/04 04:22:14;;;;;;;1.15;0.10;;;19.90;51.00;;;;;;5086840;28;20479;-52
2022/02/04 04:24:41;;;;;;;0.10;0.10;;;19.90;50.90;;;;;;5084302;28;20046;-48
2022/02/04 04:27:08;;;;;;;0.40;0.10;;;19.80;50.80;;;;;;5085618;28;20028;-53
2022/02/04 04:29:35;;;;;;;0.40;0.10;;;19.90;50.80;;;;;;5084083;28;20043;-53
2022/02/04 04:32:02;;;;;;;0.45;0.17;;;19.90;50.80;;;;;;5090390;28;20047;-54
2022/02/04 04:34:30;;;;;;;0.35;0.10;;;19.90;50.70;;;;;;5091956;28;20052;-51
2022/02/04 04:36:57;;;;;;;0.20;0.20;;;19.90;50.70;;;;;;5092002;28;20048;-52
2022/02/04 04:39:29;;;;;;;0.22;0.22;;;19.90;50.60;;;;;;5087657;28;20044;-53
2022/02/04 04:42:10;;;;;;;0.32;0.32;;;19.90;50.60;;;;;;5088757;28;20578;-52
2022/02/04 05:26:17;;;;;;;0.45;0.28;;;19.70;50.60;;;;;;4970487;28;20055;-52
2022/02/04 05:28:56;;;;;;;0.30;0.17;;;19.80;50.70;;;;;;4969950;28;20090;-52
2022/02/04 05:31:23;;;;;;;0.35;0.35;;;19.80;50.80;;;;;;4967752;28;20057;-51
2022/02/04 05:33:50;;;;;;;0.43;0.43;;;19.80;50.70;;;;;;5026385;28;20045;-50
2022/02/04 05:36:17;;;;;;;1.60;0.10;;;19.70;50.70;;;;;;5028007;28;20048;-50
2022/02/04 05:38:46;;;;;;;2.88;0.30;;;19.70;50.60;;;;;;5022584;28;20069;-53
2022/02/04 05:41:18;;;;;;;0.40;0.40;;;19.70;50.60;;;;;;5055296;28;20447;-51
2022/02/04 05:43:47;;;;;;;0.30;0.22;;;19.80;50.60;;;;;;5096281;28;20036;-53
2022/02/04 05:46:17;;;;;;;0.30;0.30;;;19.80;50.60;;;;;;5090502;28;20055;-50
2022/02/04 05:48:48;;;;;;;1.13;0.40;;;19.70;50.50;;;;;;5083067;28;20048;-49
2022/02/04 05:51:30;;;;;;;0.43;0.20;;;19.70;50.50;;;;;;5079689;28;20089;-48
2022/02/04 05:54:05;;;;;;;1.05;1.05;;;19.80;50.50;;;;;;5083195;28;20537;-53
2022/02/04 05:56:39;;;;;;;1.45;0.55;;;19.70;50.50;;;;;;5087612;28;20047;-51
2022/02/04 05:59:14;;;;;;;0.40;0.30;;;19.80;50.50;;;;;;5091671;28;20051;-53
2022/02/04 06:01:49;;;;;;;0.85;0.17;;;19.80;50.50;;;;;;5092317;28;20469;-50
2022/02/04 06:04:32;;;;;;;0.32;0.32;;;19.70;50.40;;;;;;5089866;28;20052;-50
2022/02/04 06:07:18;;;;;;;0.57;0.30;;;19.70;50.40;;;;;;5084447;28;20071;-52
2022/02/04 06:23:42;;;;;;;0.77;0.30;;;19.70;50.50;;;;;;5088696;28;20063;-54
2022/02/04 06:26:11;;;;;;;0.60;0.20;;;19.80;50.50;;;;;;5091960;28;20051;-50
2022/02/04 06:28:40;;;;;;;0.30;0.30;;;19.70;50.40;;;;;;5090135;28;20040;-47
2022/02/04 06:31:08;;;;;;;0.35;0.35;;;19.70;50.40;;;;;;5088599;28;20048;-53
2022/02/04 06:33:35;;;;;;;0.63;0.20;;;19.70;50.30;;;;;;5090275;28;20040;-49
2022/02/04 06:36:02;;;;;;;0.30;0.30;;;19.80;50.30;;;;;;5090361;28;20051;-50
2022/02/04 06:38:29;;;;;;;0.20;0.20;;;19.70;50.30;;;;;;5087749;28;20081;-51
2022/02/04 06:40:57;;;;;;;0.70;0.35;;;19.70;50.30;;;;;;5088246;28;20397;-50
2022/02/04 06:43:25;;;;;;;0.38;0.20;;;19.80;50.30;;;;;;5091028;28;20063;-53
2022/02/04 06:45:53;;;;;;;0.32;0.25;;;19.70;50.30;;;;;;5089590;28;20051;-51
2022/02/04 06:48:20;;;;;;;0.40;0.35;;;19.70;50.30;;;;;;5084672;28;20486;-50
2022/02/04 06:50:47;;;;;;;0.20;0.10;;;19.70;50.30;;;;;;5081813;28;20036;-52
2022/02/04 06:53:15;;;;;;;0.82;0.50;;;19.70;50.40;;;;;;5093479;28;20067;-48
2022/02/04 06:55:43;;;;;;;1.95;0.20;;;19.80;50.40;;;;;;5089800;28;20048;-51
2022/02/04 06:58:12;;;;;;;0.50;0.50;;;19.70;50.40;;;;;;5089869;28;20050;-52
2022/02/04 07:00:42;;;;;;;0.32;0.32;;;19.80;50.40;;;;;;5084698;28;20048;-50
2022/02/04 07:03:09;;;;;;;0.98;0.30;;;19.70;50.40;;;;;;5084536;28;20048;-51
2022/02/04 07:05:41;;;;;;;0.55;0.55;;;19.80;50.40;;;;;;5087476;28;20193;-50
2022/02/04 07:08:15;;;;;;;0.40;0.40;;;19.70;50.40;;;;;;5092859;28;20493;-47
2022/02/04 07:11:00;;;;;;;0.77;0.30;;;19.80;50.40;;;;;;5089740;28;20040;-47
2022/02/04 07:13:38;;;;;;;0.20;0.20;;;19.70;50.40;;;;;;5086874;28;20043;-49
2022/02/04 07:16:24;;;;;;;1.05;0.38;;;19.70;50.40;;;;;;5084994;28;20134;-50
2022/02/04 07:21:35;;;;;;;0.30;0.30;;;19.70;50.40;;;;;;5083806;28;20558;-52
2022/02/04 07:24:03;;;;;;;0.30;0.30;;;19.70;50.30;;;;;;5087085;28;20040;-48
2022/02/04 07:26:30;;;;;;;0.30;0.25;;;19.80;50.30;;;;;;5091475;28;20044;-48
2022/02/04 07:28:57;;;;;;;0.20;0.20;;;19.80;50.30;;;;;;5089976;28;20127;-50
2022/02/04 07:31:30;;;;;;;0.60;0.30;;;19.80;50.30;;;;;;5086356;28;20047;-50
2022/02/04 07:34:11;;;;;;;0.80;0.22;;;19.80;50.30;;;;;;5088957;28;20555;-51
2022/02/04 07:42:08;;;;;;;1.52;0.30;;;19.70;50.70;;;;;;5083417;28;20140;-50
2022/02/04 07:44:35;;;;;;;1.50;0.20;;;19.70;50.70;;;;;;5085164;28;20032;-46
2022/02/04 07:47:04;;;;;;;0.35;0.20;;;19.70;50.80;;;;;;5090208;28;20124;-48
2022/02/04 07:49:31;;;;;;;0.22;0.22;;;19.70;50.70;;;;;;5088147;28;20123;-50
2022/02/04 07:51:58;;;;;;;0.70;0.70;;;19.80;50.70;;;;;;5089193;28;20038;-51
2022/02/04 07:54:26;;;;;;;1.20;0.30;;;19.80;50.70;;;;;;5088654;28;20128;-47
2022/02/04 07:56:53;;;;;;;0.28;0.20;;;19.70;50.60;;;;;;5084196;28;20047;-50
2022/02/04 07:59:20;;;;;;;0.52;0.20;;;19.80;50.70;;;;;;5089493;28;20044;-51
2022/02/04 08:01:47;;;;;;;0.15;0.13;;;19.80;50.70;;;;;;5089525;28;20052;-51
2022/02/04 08:04:20;;;;;;;0.70;0.30;;;19.80;50.60;;;;;;5086726;28;20075;-49
2022/02/04 08:06:48;;;;;;;0.73;0.68;;;19.80;50.60;;;;;;5089447;28;20043;-49
2022/02/04 08:09:24;;;;;;;0.30;0.22;;;19.80;50.60;;;;;;5092579;28;20028;-48
2022/02/04 08:12:09;;;;;;;0.70;0.20;;;19.80;50.70;;;;;;5081812;28;20522;-50
2022/02/04 08:15:01;;;;;;;0.50;0.15;;;19.70;50.70;;;;;;5089588;28;20204;-48
2022/02/04 08:31:39;;;;;;;1.15;0.20;;;19.80;51.20;;;;;;5085151;28;20104;-53
2022/02/04 08:46:32;;;;;;;4.43;1.35;;;19.80;51.80;;;;;;5063883;28;20045;-59
2022/02/04 08:51:09;;;;;;;3.15;0.55;;;19.90;52.30;;;;;;5059681;28;20132;-62
2022/02/04 08:56:25;;;;;;;1.35;1.10;;;19.90;52.40;;;;;;5050785;28;20407;-62
2022/02/04 08:58:56;;;;;;;2.67;0.98;;;20.00;52.40;;;;;;5070493;28;20044;-62
2022/02/04 09:01:28;;;;;;;2.35;0.57;;;20.00;52.40;;;;;;5050359;28;20037;-62
2022/02/04 09:04:06;;;;;;;1.70;0.40;;;20.00;52.40;;;;;;5066628;28;20047;-62
2022/02/04 09:06:39;;;;;;;0.88;0.60;;;20.10;52.40;;;;;;5065709;28;20246;-62
2022/02/04 09:09:13;;;;;;;0.98;0.60;;;20.10;52.40;;;;;;5072853;28;20043;-62
2022/02/04 09:11:42;;;;;;;2.60;0.45;;;20.10;52.90;;;;;;5063975;28;20041;-54
2022/02/04 09:17:03;;;;;;;1.60;0.80;;;20.20;52.40;;;;;;5092843;28;20630;-63
2022/02/04 09:19:43;;;;;;;1.25;0.65;;;20.20;52.30;;;;;;5091056;28;20044;-62
2022/02/04 09:22:26;;;;;;;1.85;0.73;;;20.20;52.40;;;;;;5089552;28;20036;-59
2022/02/04 09:24:55;;;;;;;1.83;0.30;;;20.20;52.30;;;;;;5090869;28;20050;-60
2022/02/04 09:27:22;;;;;;;2.67;0.63;;;20.20;52.30;;;;;;5091203;28;20038;-63
2022/02/04 09:29:49;;;;;;;2.20;0.73;;;20.30;52.50;;;;;;5086511;28;20048;-72
2022/02/04 09:32:17;;;;;;;0.75;0.40;;;20.30;52.70;;;;;;5090766;28;20028;-62
2022/02/04 09:34:44;;;;;;;4.03;0.50;;;20.30;52.80;;;;;;5091940;28;20083;-60
2022/02/04 09:37:11;;;;;;;5.97;0.57;;;20.40;52.90;;;;;;5090399;28;20044;-61
2022/02/04 09:39:39;;;;;;;2.30;0.40;;;20.40;52.90;;;;;;5086797;28;20068;-62
2022/02/04 09:42:08;;;;;;;2.00;0.55;;;20.40;52.90;;;;;;5085888;28;20091;-71
2022/02/04 09:44:35;;;;;;;0.50;0.30;;;20.40;52.90;;;;;;5090033;28;20040;-59
2022/02/04 09:47:03;;;;;;;0.47;0.20;;;20.40;53.00;;;;;;5090900;28;20052;-65
2022/02/04 09:49:32;;;;;;;1.55;0.50;;;20.50;53.00;;;;;;5087115;28;20046;-62
2022/02/04 10:09:34;;;;;;;2.92;0.85;;;20.60;53.70;;;;;;5089060;28;20423;-62
2022/02/04 10:12:32;;;;;;;1.27;0.32;;;20.60;53.80;;;;;;5084271;28;20048;-62
2022/02/04 10:15:16;;;;;;;0.82;0.30;;;20.60;53.90;;;;;;5079885;28;20047;-60
2022/02/04 10:17:58;;;;;;;1.48;0.40;;;20.70;54.00;;;;;;5081638;28;20143;-64
2022/02/04 10:20:26;;;;;;;0.68;0.32;;;20.70;54.00;;;;;;5090207;28;20051;-60
2022/02/04 10:22:54;;;;;;;2.78;0.68;;;20.70;54.00;;;;;;5091391;28;20095;-57
2022/02/04 10:25:21;;;;;;;2.10;0.50;;;20.70;54.00;;;;;;5088280;28;20134;-63
2022/02/04 10:27:51;;;;;;;1.65;0.20;;;20.80;53.90;;;;;;5092198;28;20051;-61
2022/02/04 10:30:20;;;;;;;1.88;0.20;;;20.70;53.90;;;;;;5089354;28;20040;-59
2022/02/04 10:32:48;;;;;;;1.17;0.22;;;20.80;53.80;;;;;;5084716;28;20136;-64
2022/02/04 10:35:19;;;;;;;0.77;0.45;;;20.80;53.70;;;;;;5090445;28;20042;-60
2022/02/04 10:38:08;;;;;;;0.40;0.20;;;20.80;53.70;;;;;;5086570;28;20093;-50
2022/02/04 10:40:47;;;;;;;2.38;0.35;;;20.80;53.40;;;;;;5088557;28;20155;-48
2022/02/04 10:43:39;;;;;;;1.42;0.20;;;20.80;53.30;;;;;;5088753;28;20176;-52
2022/02/04 10:46:20;;;;;;;0.95;0.30;;;20.80;53.00;;;;;;5085968;28;20685;-49
2022/02/04 10:51:59;;;;;;;2.33;0.30;;;20.80;52.80;;;;;;5085531;28;20040;-52
2022/02/04 10:57:46;;;;;;;2.83;0.15;;;20.80;52.50;;;;;;5089469;28;20035;-51
2022/02/04 11:00:25;;;;;;;2.47;1.10;;;20.80;52.40;;;;;;5080248;28;20085;-52
2022/02/04 11:03:07;;;;;;;0.65;0.30;;;20.80;52.20;;;;;;5081415;28;21541;-50
2022/02/04 11:05:51;;;;;;;0.20;0.20;;;20.80;52.10;;;;;;5101039;28;20085;-50
2022/02/04 11:54:43;;;;;;;0.43;0.10;;;20.90;50.80;;;;;;5081719;28;20044;-53
2022/02/04 11:57:18;;;;;;;0.10;0.10;;;20.90;50.70;;;;;;5094392;28;20423;-51
2022/02/04 11:59:47;;;;;;;0.43;0.10;;;20.90;50.70;;;;;;5088618;28;20504;-54
2022/02/04 12:02:36;;;;;;;1.58;0.10;;;20.90;50.60;;;;;;5094267;28;20126;-54
2022/02/04 12:05:26;;;;;;;0.63;0.13;;;21.00;50.50;;;;;;5088080;28;20043;-55
2022/02/04 12:07:59;;;;;;;1.90;0.30;;;21.10;50.40;;;;;;5088391;28;20093;-53
2022/02/04 12:10:28;;;;;;;0.52;0.10;;;21.00;50.30;;;;;;5092698;28;20044;-55
2022/02/04 12:13:00;;;;;;;0.30;0.10;;;21.10;50.30;;;;;;5092686;28;20044;-50
2022/02/04 12:15:38;;;;;;;0.10;0.10;;;21.10;50.20;;;;;;5088750;28;20508;-49
2022/02/04 12:18:07;;;;;;;0.20;0.10;;;21.20;50.20;;;;;;5088026;28;20043;-53
2022/02/04 12:20:57;;;;;;;0.10;0.10;;;21.20;50.10;;;;;;5091094;28;20142;-54
2022/02/04 12:23:45;;;;;;;2.67;0.10;;;21.30;49.90;;;;;;5085295;28;20036;-54
2022/02/04 12:26:20;;;;;;;1.63;0.10;;;21.30;49.80;;;;;;5092506;28;20074;-51
2022/02/04 12:28:50;;;;;;;0.43;0.05;;;21.40;49.80;;;;;;5096976;28;20047;-53
2022/02/04 12:31:24;;;;;;;0.40;0.10;;;21.40;49.70;;;;;;5089110;28;20044;-54
2022/02/04 12:33:54;;;;;;;0.25;0.22;;;21.40;49.60;;;;;;5090981;28;20073;-51
2022/02/04 12:36:24;;;;;;;1.00;0.00;;;21.50;49.60;;;;;;5089378;28;20071;-53
2022/02/04 12:38:55;;;;;;;0.25;0.10;;;21.50;49.50;;;;;;5092787;28;20044;-53
2022/02/04 12:41:25;;;;;;;0.13;0.05;;;21.60;49.40;;;;;;5091535;28;20105;-50
2022/02/04 12:43:55;;;;;;;0.85;0.65;;;21.60;49.30;;;;;;5090760;28;20143;-53
2022/02/04 12:46:23;;;;;;;0.57;0.10;;;21.60;49.20;;;;;;5093839;28;20735;-52
2022/02/04 12:49:03;;;;;;;2.85;0.08;;;21.70;49.10;;;;;;5091245;28;20040;-53
2022/02/04 12:51:55;;;;;;;0.10;0.08;;;21.80;49.00;;;;;;5085082;28;20055;-54
2022/02/04 12:54:33;;;;;;;0.85;0.45;;;21.80;48.90;;;;;;5076813;28;20539;-50
2022/02/04 12:59:56;;;;;;;1.63;0.10;;;21.80;48.70;;;;;;5088189;28;20047;-54
2022/02/04 13:02:39;;;;;;;0.45;0.35;;;21.90;48.60;;;;;;5091660;28;20087;-50
2022/02/04 13:08:06;;;;;;;0.22;0.03;;;21.90;48.40;;;;;;5092304;28;20056;-49
2022/02/04 13:10:34;;;;;;;2.22;0.10;;;21.90;48.20;;;;;;5090563;28;20064;-47
2022/02/04 13:13:04;;;;;;;0.30;0.10;;;21.90;48.00;;;;;;5092185;28;20040;-50
2022/02/04 13:15:33;;;;;;;0.20;0.00;;;21.90;47.80;;;;;;5088327;28;20404;-52
2022/02/04 13:18:05;;;;;;;0.08;0.00;;;22.00;47.80;;;;;;5088005;28;20048;-47
2022/02/04 13:20:32;;;;;;;0.68;0.10;;;21.90;47.60;;;;;;5090773;28;20078;-50
2022/02/04 13:23:05;;;;;;;0.00;0.00;;;22.00;47.60;;;;;;5092777;28;20169;-51
2022/02/04 13:25:35;;;;;;;0.63;0.10;;;22.00;47.50;;;;;;5088225;28;20055;-47
2022/02/04 13:28:12;;;;;;;0.95;0.03;;;22.00;47.40;;;;;;5089320;28;20138;-49
2022/02/04 13:30:42;;;;;;;0.10;0.00;;;22.00;47.30;;;;;;5090926;28;20039;-50
2022/02/04 13:33:18;;;;;;;0.22;0.00;;;22.00;47.20;;;;;;5086748;28;20040;-51
2022/02/04 13:35:53;;;;;;;1.02;0.00;;;22.00;47.10;;;;;;5089558;28;20044;-53
2022/02/04 13:38:27;;;;;;;0.60;0.08;;;22.00;47.00;;;;;;5089021;28;20068;-48
2022/02/04 13:41:08;;;;;;;0.20;0.00;;;22.00;47.00;;;;;;5091747;28;20055;-48
2022/02/04 13:43:43;;;;;;;0.30;0.30;;;22.00;47.00;;;;;;5089273;28;20048;-50
2022/02/04 13:46:22;;;;;;;0.30;0.00;;;21.90;46.90;;;;;;5089228;28;20048;-49
2022/02/04 13:51:48;;;;;;;0.20;0.00;;;21.90;46.90;;;;;;5085681;28;20468;-46
2022/02/04 13:57:21;;;;;;;0.22;0.10;;;21.90;46.90;;;;;;5087774;28;20082;-48
2022/02/04 14:00:12;;;;;;;1.35;0.30;;;21.90;46.80;;;;;;5084595;28;20074;-50
2022/02/04 14:02:51;;;;;;;0.30;0.10;;;21.90;47.40;;;;;;5081806;28;20039;-53
2022/02/04 14:05:27;;;;;;;0.30;0.00;;;21.80;46.80;;;;;;5083361;28;20067;-53
2022/02/04 14:08:06;;;;;;;0.10;0.00;;;21.80;46.80;;;;;;5089214;28;20063;-52
2022/02/04 14:10:39;;;;;;;1.75;0.10;;;21.90;46.90;;;;;;5090767;28;20036;-53
2022/02/04 14:13:10;;;;;;;3.65;0.45;;;21.80;46.80;;;;;;5090555;28;20048;-53
2022/02/04 14:15:40;;;;;;;0.10;0.00;;;21.80;46.80;;;;;;5087265;28;20121;-52
2022/02/04 14:18:09;;;;;;;8.18;0.10;;;21.70;46.70;;;;;;5077005;28;20745;-49
2022/02/04 14:20:38;;;;;;;8.52;0.35;;;21.80;46.90;;;;;;5099319;28;20032;-53
2022/02/04 14:23:06;;;;;;;0.80;0.00;;;21.70;47.00;;;;;;5088924;28;20097;-49
2022/02/04 14:25:46;;;;;;;0.17;0.10;;;21.80;47.10;;;;;;5085624;28;20093;-46
2022/02/04 14:28:18;;;;;;;3.05;0.38;;;21.80;47.20;;;;;;5088321;28;20040;-43
2022/02/04 14:30:46;;;;;;;0.50;0.10;;;21.80;47.30;;;;;;5084015;28;20081;-46
2022/02/04 14:33:29;;;;;;;0.10;0.00;;;21.70;47.40;;;;;;5085146;28;20109;-48
2022/02/04 14:36:03;;;;;;;0.20;0.00;;;21.70;47.40;;;;;;5086740;28;20040;-49
2022/02/04 14:52:22;;;;;;;0.35;0.00;;;21.60;47.50;;;;;;5078658;28;20724;-44
2022/02/04 15:00:38;;;;;;;0.10;0.00;;;21.60;47.60;;;;;;5084053;28;20043;-43
2022/02/04 15:03:24;;;;;;;0.03;0.00;;;21.60;47.60;;;;;;5085160;28;20130;-45
2022/02/04 15:06:02;;;;;;;0.30;0.00;;;21.60;47.60;;;;;;5084607;28;20496;-47
2022/02/04 15:08:32;;;;;;;0.40;0.00;;;21.60;47.60;;;;;;5085572;28;20067;-43
2022/02/04 15:11:01;;;;;;;2.65;0.10;;;21.50;47.60;;;;;;5087104;28;20047;-42
2022/02/04 15:13:31;;;;;;;0.52;0.10;;;21.50;47.50;;;;;;5089281;28;20072;-43
2022/02/04 15:16:01;;;;;;;0.00;0.00;;;21.50;48.10;;;;;;5086876;28;20113;-42
2022/02/04 15:18:28;;;;;;;1.45;0.00;;;21.50;48.20;;;;;;5085635;28;20044;-45
2022/02/04 15:20:59;;;;;;;0.55;0.00;;;21.50;47.60;;;;;;5089964;27;20093;-42
2022/02/04 15:23:27;;;;;;;1.95;0.00;;;21.50;48.20;;;;;;5087848;28;20101;-43
2022/02/04 15:25:56;;;;;;;0.00;0.00;;;21.50;47.60;;;;;;5089587;28;20539;-44
2022/02/04 15:28:38;;;;;;;0.00;0.00;;;21.50;47.60;;;;;;5093501;28;20040;-44
2022/02/04 15:31:11;;;;;;;0.00;0.00;;;21.50;47.60;;;;;;5089217;28;20044;-49
2022/02/04 15:33:38;;;;;;;0.40;0.10;;;21.40;47.60;;;;;;5086895;28;20093;-53
2022/02/04 15:36:06;;;;;;;0.00;0.00;;;21.40;47.80;;;;;;5085840;28;20691;-53
2022/02/04 15:38:33;;;;;;;4.00;0.13;;;21.40;47.90;;;;;;5089434;28;20575;-52
2022/02/04 15:41:01;;;;;;;2.63;0.10;;;21.40;48.10;;;;;;5089916;28;20502;-56
2022/02/04 15:43:30;;;;;;;0.55;0.03;;;21.40;48.20;;;;;;5087941;28;20036;-54
2022/02/04 15:46:33;;;;;;;3.10;0.20;;;21.30;48.20;;;;;;5089451;28;20035;-55
2022/02/04 15:49:07;;;;;;;0.77;0.35;;;21.30;48.20;;;;;;5083555;28;20044;-55
2022/02/04 15:52:01;;;;;;;4.85;0.10;;;21.30;48.40;;;;;;5085899;28;20040;-52
2022/02/04 15:54:49;;;;;;;0.85;0.10;;;21.30;48.40;;;;;;5079798;28;20585;-52
2022/02/04 15:57:33;;;;;;;4.28;0.15;;;21.20;48.50;;;;;;5085152;28;20039;-51
2022/02/04 16:03:02;;;;;;;0.00;0.00;;;21.20;48.60;;;;;;5079942;28;20105;-48
2022/02/04 16:05:32;;;;;;;2.95;0.68;;;21.20;48.70;;;;;;5084746;28;20067;-49
2022/02/04 16:07:59;;;;;;;2.40;0.03;;;21.20;48.80;;;;;;5086521;28;20055;-48
2022/02/04 16:10:37;;;;;;;3.20;0.10;;;21.10;48.70;;;;;;5091628;28;20051;-47
2022/02/04 16:13:12;;;;;;;0.00;0.00;;;21.10;48.70;;;;;;5084731;28;20122;-51
2022/02/04 16:15:50;;;;;;;2.55;0.00;;;21.10;48.70;;;;;;5086688;28;20123;-45
2022/02/04 16:18:23;;;;;;;3.72;0.10;;;21.10;48.70;;;;;;5077507;28;20044;-45
2022/02/04 16:21:06;;;;;;;2.35;0.10;;;21.10;48.70;;;;;;5079841;28;20512;-46
2022/02/04 16:23:47;;;;;;;0.40;0.00;;;21.10;48.70;;;;;;5081994;28;20048;-46
2022/02/04 16:26:35;;;;;;;0.10;0.00;;;21.10;48.70;;;;;;5088690;28;20715;-45
2022/02/04 16:29:02;;;;;;;0.00;0.00;;;21.10;48.80;;;;;;5096248;28;20059;-48
2022/02/04 16:31:30;;;;;;;0.10;0.10;;;21.00;48.70;;;;;;5092553;28;20040;-48
2022/02/04 16:33:57;;;;;;;2.75;0.00;;;21.00;48.70;;;;;;5091640;28;20039;-48
2022/02/04 16:36:27;;;;;;;7.22;0.10;;;21.00;48.80;;;;;;5087637;28;20032;-46
2022/02/04 16:38:55;;;;;;;6.00;0.40;;;21.00;48.90;;;;;;5093206;28;20050;-47
2022/02/04 16:41:30;;;;;;;0.85;0.20;;;21.00;49.00;;;;;;5091642;28;20046;-44
2022/02/04 16:43:58;;;;;;;0.90;0.20;;;21.00;49.20;;;;;;5091199;28;20066;-50
2022/02/04 16:46:25;;;;;;;6.40;0.10;;;21.00;49.30;;;;;;5094081;28;20036;-50
2022/02/04 16:48:52;;;;;;;2.35;0.17;;;20.90;49.40;;;;;;5091914;28;20051;-48
2022/02/04 16:51:20;;;;;;;1.02;0.00;;;20.90;49.40;;;;;;5087133;28;20405;-49
2022/02/04 16:53:48;;;;;;;2.28;0.90;;;20.90;49.40;;;;;;5091520;28;20055;-47
2022/02/04 16:56:16;;;;;;;1.00;0.10;;;20.90;49.30;;;;;;5095473;28;20036;-46
2022/02/04 16:58:44;;;;;;;0.40;0.08;;;20.90;49.40;;;;;;5090746;28;20039;-50
2022/02/04 17:01:11;;;;;;;2.30;0.05;;;20.80;49.30;;;;;;5092087;28;20499;-49
2022/02/04 17:03:38;;;;;;;1.52;0.10;;;20.90;49.30;;;;;;5089381;28;20504;-50
2022/02/04 17:06:07;;;;;;;0.63;0.00;;;20.80;49.20;;;;;;5092863;28;20048;-49
2022/02/04 17:08:36;;;;;;;0.75;0.10;;;20.80;49.10;;;;;;5089581;28;20428;-50
2022/02/04 17:11:10;;;;;;;1.17;0.00;;;20.70;49.10;;;;;;5091647;28;20052;-49
2022/02/04 17:13:37;;;;;;;5.15;1.45;;;20.70;49.00;;;;;;5086113;28;20055;-50
2022/02/04 17:16:05;;;;;;;0.45;0.08;;;20.60;48.90;;;;;;5091041;28;20055;-45
2022/02/04 17:18:35;;;;;;;2.08;0.10;;;20.60;49.00;;;;;;5088299;28;20036;-52
2022/02/04 17:21:03;;;;;;;0.43;0.00;;;20.60;48.90;;;;;;5089521;27;20151;-44
2022/02/04 17:23:39;;;;;;;2.10;0.15;;;20.50;48.80;;;;;;5085727;28;20401;-48
2022/02/04 17:26:08;;;;;;;0.20;0.00;;;20.50;48.80;;;;;;5091712;28;20156;-51
2022/02/04 17:28:35;;;;;;;0.30;0.00;;;20.40;48.80;;;;;;5091263;28;20062;-48
2022/02/04 17:31:03;;;;;;;1.90;0.00;;;20.40;48.70;;;;;;5086705;28;20047;-46
2022/02/04 17:33:31;;;;;;;1.48;0.00;;;20.40;48.70;;;;;;5087481;28;20040;-46
2022/02/04 17:35:58;;;;;;;2.72;0.20;;;20.30;48.60;;;;;;5087403;28;20062;-51
2022/02/04 17:38:29;;;;;;;1.73;0.05;;;20.30;48.60;;;;;;5091337;28;20071;-49
2022/02/04 17:40:57;;;;;;;1.45;0.10;;;20.30;48.60;;;;;;5092159;28;20499;-49
2022/02/04 17:43:26;;;;;;;0.20;0.13;;;20.20;48.60;;;;;;5088966;28;20055;-50
2022/02/04 17:45:54;;;;;;;2.05;0.03;;;20.20;48.60;;;;;;5090340;28;20035;-49